Wednesday, October 18, 2017, 3:33 AM EDT
Back to Local

KFRG, Farmingdale Republic Airport

Location: Farmingdale, NY, United States Lat: 40.733
Local Time: 3:33 AM EDT ( 7:33 GMT) Lon: -73.417
Time Zone: US/Eastern Elev: 82 ft

Show me the last for .
Show Decoded

2017-10-18 02:53 METAR KFRG 180653Z AUTO 26006KT 10SM CLR 09/04 A3029 RMK AO2 SLP256 T00940039 =
2017-10-18 01:53 METAR KFRG 180553Z AUTO 26006KT 10SM CLR 09/04 A3029 RMK AO2 SLP257 T00890044
                 10106 20078 56004 =
2017-10-18 00:53 METAR KFRG 180453Z AUTO 00000KT 10SM CLR 09/05 A3029 RMK AO2 SLP257 T00940050
                 401440061 =
2017-10-17 23:53 METAR KFRG 180353Z AUTO 24003KT 10SM CLR 10/05 A3029 RMK AO2 SLP258 T01000050 =
2017-10-17 22:53 METAR KFRG 180253Z 26003KT 10SM CLR 09/05 A3030 RMK AO2 SLP261 T00940050 51006 =
2017-10-17 21:53 METAR KFRG 180153Z 24003KT 10SM CLR 10/04 A3029 RMK AO2 SLP258 T01000044 =
2017-10-17 20:53 METAR KFRG 180053Z 22003KT 10SM CLR 11/04 A3029 RMK AO2 SLP257 T01060039 =
2017-10-17 19:53 METAR KFRG 172353Z 19005KT 10SM CLR 10/03 A3028 RMK AO2 SLP254 T01000033 10144
                 20100 51008 =
2017-10-17 18:53 METAR KFRG 172253Z 21006KT 10SM CLR 11/03 A3028 RMK AO2 SLP253 T01110028 =
2017-10-17 17:53 METAR KFRG 172153Z 21010KT 10SM CLR 12/03 A3027 RMK AO2 SLP249 T01220028 =
2017-10-17 16:53 METAR KFRG 172053Z 23007KT 190V270 10SM CLR 14/M01 A3026 RMK AO2 SLP247
                 T01441006 58011 =
2017-10-17 15:53 METAR KFRG 171953Z 00000KT 10SM CLR 14/M01 A3027 RMK AO2 SLP251 T01391006 =
2017-10-17 14:53 METAR KFRG 171853Z VRB03KT 10SM CLR 14/M02 A3028 RMK AO2 SLP255 T01391017 =
2017-10-17 13:53 METAR KFRG 171753Z VRB03KT 10SM CLR 13/M01 A3029 RMK AO2 SLP258 T01281006 10133
                 20072 58012 =
2017-10-17 12:53 METAR KFRG 171653Z 34007KT 10SM CLR 13/00 A3031 RMK AO2 SLP262 T01280000 =
2017-10-17 11:53 METAR KFRG 171553Z 04003KT 10SM CLR 12/01 A3032 RMK AO2 SLP269 T01170006 =
2017-10-17 10:53 METAR KFRG 171453Z 36007KT 10SM CLR 11/01 A3032 RMK AO2 SLP269 T01060011 50003 =
2017-10-17 09:53 METAR KFRG 171353Z 36010KT 10SM CLR 09/01 A3034 RMK AO2 SLP273 T00940006 =
2017-10-17 08:53 METAR KFRG 171253Z 36010KT 10SM CLR 08/M01 A3034 RMK AO2 SLP273 T00831006 =
2017-10-17 07:53 METAR KFRG 171153Z 36007KT 10SM CLR 07/01 A3031 RMK AO2 SLP266 T00720011 10083
                 20061 51020 =
2017-10-17 06:53 METAR KFRG 171053Z 35007KT 10SM CLR 06/02 A3030 RMK AO2 SLP259 T00610017 =
2017-10-17 05:53 METAR KFRG 170953Z AUTO 35005KT 10SM CLR 07/01 A3028 RMK AO2 SLP254 T00670011 =
2017-10-17 04:53 METAR KFRG 170853Z AUTO 01006KT 10SM CLR 07/01 A3026 RMK AO2 SLP245 T00670011
                 53011 =
2017-10-17 03:53 METAR KFRG 170753Z AUTO 34005KT 10SM CLR 07/01 A3024 RMK AO2 SLP241 T00720011 =

Support USWX by starting your Amazon purchase here.